createdAt,value
2022-11-10T00:02:05.842Z,13.63
2022-11-10T00:04:32.050Z,10.50
2022-11-10T00:06:58.236Z,5.50
2022-11-10T00:09:24.412Z,10.20
2022-11-10T00:11:50.744Z,9.73
2022-11-10T00:14:35.448Z,12.00
2022-11-10T00:17:03.623Z,9.70
2022-11-10T00:19:30.464Z,11.63
2022-11-10T00:21:57.113Z,9.90
2022-11-10T00:24:23.480Z,10.27
2022-11-10T00:26:49.925Z,10.60
2022-11-10T00:29:16.295Z,16.10
2022-11-10T00:31:42.604Z,12.83
2022-11-10T00:34:12.731Z,12.63
2022-11-10T00:36:39.029Z,14.57
2022-11-10T00:39:05.397Z,13.17
2022-11-10T00:41:31.605Z,14.90
2022-11-10T00:43:57.913Z,9.93
2022-11-10T00:46:24.076Z,15.73
2022-11-10T00:48:50.227Z,13.97
2022-11-10T00:51:20.728Z,15.93
2022-11-10T00:53:46.988Z,9.73
2022-11-10T00:56:13.171Z,12.20
2022-11-10T00:58:39.332Z,10.07
2022-11-10T01:01:05.847Z,14.00
2022-11-10T01:03:32.335Z,8.27
2022-11-10T01:05:58.543Z,12.33
2022-11-10T01:08:25.373Z,8.53
2022-11-10T01:10:51.498Z,8.40
2022-11-10T01:13:17.658Z,11.47
2022-11-10T01:15:43.925Z,10.17
2022-11-10T01:18:10.079Z,14.33
2022-11-10T01:20:36.211Z,15.87
2022-11-10T01:23:02.360Z,8.83
2022-11-10T01:25:29.192Z,11.63
2022-11-10T01:27:55.300Z,13.43
2022-11-10T01:30:21.413Z,7.83
2022-11-10T01:32:47.592Z,6.47
2022-11-10T01:35:13.782Z,10.20
2022-11-10T01:37:39.941Z,13.30
2022-11-10T01:40:07.713Z,11.77
2022-11-10T01:42:44.515Z,16.07
2022-11-10T01:45:44.896Z,13.73
2022-11-10T01:48:14.580Z,13.37
2022-11-10T01:50:41.697Z,13.80
2022-11-10T01:53:11.241Z,15.30
2022-11-10T01:55:38.976Z,17.97
2022-11-10T01:58:05.986Z,16.03
2022-11-10T02:00:32.121Z,15.50
2022-11-10T02:03:03.415Z,12.90
2022-11-10T02:05:29.536Z,14.63
2022-11-10T02:07:56.466Z,7.33
2022-11-10T02:10:22.679Z,11.77
2022-11-10T02:12:49.447Z,16.63
2022-11-10T02:15:17.444Z,9.60
2022-11-10T02:17:45.610Z,19.50
2022-11-10T02:20:13.827Z,12.97
2022-11-10T02:22:40.830Z,10.17
2022-11-10T02:25:08.059Z,18.87
2022-11-10T02:27:34.201Z,11.57
2022-11-10T02:30:01.359Z,16.63
2022-11-10T02:32:27.924Z,12.33
2022-11-10T02:34:54.320Z,7.33
2022-11-10T02:37:20.698Z,14.20
2022-11-10T02:39:47.473Z,9.87
2022-11-10T02:42:13.615Z,9.93
2022-11-10T02:44:40.247Z,12.17
2022-11-10T02:47:06.902Z,13.30
2022-11-10T02:49:33.107Z,12.70
2022-11-10T02:51:59.333Z,13.00
2022-11-10T02:54:25.456Z,13.23
2022-11-10T02:56:52.576Z,15.17
2022-11-10T02:59:18.721Z,13.33
2022-11-10T03:01:44.942Z,16.70
2022-11-10T03:04:11.428Z,12.80
2022-11-10T03:06:37.598Z,13.83
2022-11-10T03:09:03.851Z,10.93
2022-11-10T03:11:32.382Z,12.37
2022-11-10T03:14:02.039Z,12.80
2022-11-10T03:16:28.842Z,17.40
2022-11-10T03:18:54.983Z,13.53
2022-11-10T03:21:21.112Z,18.67
2022-11-10T03:23:47.274Z,17.23
2022-11-10T03:26:13.575Z,13.73
2022-11-10T03:28:39.758Z,14.73
2022-11-10T03:31:06.640Z,17.80
2022-11-10T03:33:32.756Z,15.20
2022-11-10T03:35:58.915Z,13.70
2022-11-10T03:38:25.050Z,15.13
2022-11-10T03:41:17.411Z,13.00
2022-11-10T03:43:37.888Z,17.70
2022-11-10T03:46:04.170Z,32.73
2022-11-10T03:48:30.995Z,13.23
2022-11-10T03:50:57.181Z,7.37
2022-11-10T03:53:23.761Z,16.13
2022-11-10T03:55:50.070Z,13.57
2022-11-10T03:58:16.211Z,12.33
2022-11-10T04:00:42.392Z,16.07
2022-11-10T04:03:08.552Z,10.50
2022-11-10T04:05:53.631Z,16.00
2022-11-10T04:08:37.896Z,14.70
2022-11-10T04:11:04.070Z,7.13
2022-11-10T04:13:48.719Z,13.53
2022-11-10T04:16:14.891Z,13.43
2022-11-10T04:18:41.505Z,10.80
2022-11-10T04:21:08.451Z,13.80
2022-11-10T04:23:35.246Z,15.30
2022-11-10T04:26:21.573Z,14.93
2022-11-10T04:28:49.417Z,16.63
2022-11-10T04:31:17.081Z,9.90
2022-11-10T04:33:43.823Z,14.17
2022-11-10T04:36:11.988Z,16.10
2022-11-10T04:38:38.310Z,16.27
2022-11-10T04:41:05.035Z,22.20
2022-11-10T04:43:31.641Z,15.77
2022-11-10T04:45:58.152Z,15.73
2022-11-10T04:48:24.909Z,15.03
2022-11-10T04:50:51.225Z,18.93
2022-11-10T04:53:18.654Z,18.73
2022-11-10T04:55:45.575Z,17.17
2022-11-10T04:58:12.046Z,23.97
2022-11-10T05:00:38.840Z,20.53
2022-11-10T05:03:07.181Z,10.93
2022-11-10T05:05:33.365Z,13.37
2022-11-10T05:07:59.588Z,20.20
2022-11-10T05:10:27.049Z,16.10
2022-11-10T05:12:53.794Z,23.83
2022-11-10T05:15:20.105Z,20.67
2022-11-10T05:17:48.018Z,13.20
2022-11-10T05:20:14.293Z,19.03
2022-11-10T05:22:43.048Z,9.10
2022-11-10T05:25:11.455Z,26.07
2022-11-10T05:27:38.352Z,19.50
2022-11-10T05:30:05.675Z,21.07
2022-11-10T05:32:31.864Z,11.93
2022-11-10T05:34:58.009Z,23.00
2022-11-10T05:37:24.942Z,12.63
2022-11-10T05:39:51.156Z,12.93
2022-11-10T05:42:17.327Z,18.30
2022-11-10T05:44:44.116Z,12.83
2022-11-10T05:47:10.277Z,19.50
2022-11-10T05:49:36.416Z,18.83
2022-11-10T05:52:02.879Z,18.23
2022-11-10T05:54:29.041Z,12.80
2022-11-10T05:56:55.202Z,11.93
2022-11-10T05:59:21.348Z,16.13
2022-11-10T06:01:48.137Z,12.23
2022-11-10T06:04:14.262Z,14.97
2022-11-10T06:06:40.582Z,20.50
2022-11-10T06:09:06.749Z,14.60
2022-11-10T06:11:32.903Z,9.70
2022-11-10T06:14:00.104Z,18.33
2022-11-10T06:16:26.275Z,14.33
2022-11-10T06:18:53.060Z,20.33
2022-11-10T06:21:19.221Z,12.77
2022-11-10T06:23:45.394Z,11.73
2022-11-10T06:26:11.534Z,7.63
2022-11-10T06:28:37.711Z,12.03
2022-11-10T06:31:04.028Z,14.77
2022-11-10T06:33:30.175Z,12.87
2022-11-10T06:35:56.953Z,24.37
2022-11-10T06:38:23.137Z,16.90
2022-11-10T06:40:49.287Z,18.70
2022-11-10T06:43:15.512Z,16.93
2022-11-10T06:45:41.694Z,16.47
2022-11-10T06:48:09.617Z,19.87
2022-11-10T06:50:35.723Z,13.93
2022-11-10T06:53:02.851Z,16.17
2022-11-10T06:55:29.460Z,20.87
2022-11-10T06:57:55.671Z,17.40
2022-11-10T07:00:22.260Z,21.87
2022-11-10T07:02:48.422Z,10.23
2022-11-10T07:05:14.933Z,17.33
2022-11-10T07:07:41.238Z,15.13
2022-11-10T07:10:08.672Z,18.70
2022-11-10T07:12:34.830Z,16.97
2022-11-10T07:15:00.983Z,15.43
2022-11-10T07:17:27.122Z,18.97
2022-11-10T07:19:53.824Z,12.53
2022-11-10T07:22:20.007Z,15.40
2022-11-10T07:24:46.128Z,14.63
2022-11-10T07:27:12.905Z,17.00
2022-11-10T07:29:39.144Z,16.00
2022-11-10T07:32:05.345Z,16.20
2022-11-10T07:34:31.496Z,16.43
2022-11-10T07:36:58.181Z,19.20
2022-11-10T07:39:24.365Z,17.40
2022-11-10T07:41:52.643Z,18.73
2022-11-10T07:44:19.646Z,11.53
2022-11-10T07:46:46.184Z,18.90
2022-11-10T07:49:12.347Z,14.27
2022-11-10T07:51:38.505Z,16.83
2022-11-10T07:54:04.632Z,19.90
2022-11-10T07:56:30.929Z,18.97
2022-11-10T07:58:57.083Z,15.63
2022-11-10T08:01:23.950Z,16.13
2022-11-10T08:03:50.209Z,20.80
2022-11-10T08:06:16.440Z,16.07
2022-11-10T08:08:42.625Z,15.67
2022-11-10T08:11:08.814Z,21.47
2022-11-10T08:13:34.995Z,12.23
2022-11-10T08:16:02.308Z,12.83
2022-11-10T08:18:34.945Z,17.70
2022-11-10T08:21:01.876Z,18.07
2022-11-10T08:23:28.050Z,16.43
2022-11-10T08:25:57.507Z,13.10
2022-11-10T08:28:23.683Z,13.57
2022-11-10T08:30:49.899Z,21.87
2022-11-10T08:33:17.537Z,13.00
2022-11-10T08:35:46.640Z,14.60
2022-11-10T08:38:14.243Z,21.07
2022-11-10T08:40:41.255Z,18.30
2022-11-10T08:43:07.714Z,15.30
2022-11-10T08:45:34.613Z,20.20
2022-11-10T08:48:02.263Z,20.13
2022-11-10T08:50:29.172Z,19.43
2022-11-10T08:52:56.032Z,12.97
2022-11-10T08:55:22.235Z,18.53
2022-11-10T08:57:48.647Z,14.83
2022-11-10T09:00:16.113Z,17.27
2022-11-10T09:02:42.248Z,20.27
2022-11-10T09:05:09.000Z,22.83
2022-11-10T09:07:42.593Z,13.37
2022-11-10T09:10:10.177Z,15.10
2022-11-10T09:12:36.412Z,13.10
2022-11-10T09:15:02.995Z,19.60
2022-11-10T09:17:31.316Z,13.93
2022-11-10T09:19:57.467Z,10.27
2022-11-10T09:22:23.643Z,11.47
2022-11-10T09:24:50.239Z,11.60
2022-11-10T09:27:17.270Z,21.93
2022-11-10T09:29:43.395Z,18.00
2022-11-10T09:32:09.504Z,21.77
2022-11-10T09:34:35.677Z,17.77
2022-11-10T09:37:01.832Z,19.50
2022-11-10T09:39:28.011Z,25.30
2022-11-10T09:41:54.370Z,16.30
2022-11-10T09:44:23.728Z,15.50
2022-11-10T09:46:53.103Z,15.80
2022-11-10T09:49:27.741Z,12.90
2022-11-10T09:51:54.847Z,16.77
2022-11-10T09:54:33.084Z,15.90
2022-11-10T09:57:00.116Z,14.80
2022-11-10T09:59:28.654Z,11.53
2022-11-10T10:02:00.129Z,22.50
2022-11-10T10:04:48.830Z,14.43
2022-11-10T10:07:20.753Z,17.77
2022-11-10T10:09:51.838Z,16.03
2022-11-10T10:12:27.263Z,15.37
2022-11-10T10:15:15.177Z,16.10
2022-11-10T10:17:48.576Z,22.80
2022-11-10T10:20:19.393Z,19.43
2022-11-10T10:22:55.715Z,14.83
2022-11-10T10:25:23.112Z,22.70
2022-11-10T10:27:52.570Z,11.73
2022-11-10T10:30:20.226Z,20.53
2022-11-10T10:32:46.512Z,14.53
2022-11-10T10:35:13.972Z,11.37
2022-11-10T10:37:44.127Z,15.77
2022-11-10T10:40:15.151Z,17.97
2022-11-10T10:42:41.410Z,17.40
2022-11-10T10:45:16.607Z,17.07
2022-11-10T10:47:44.183Z,19.00
2022-11-10T10:50:25.808Z,18.63
2022-11-10T10:53:12.077Z,20.30
2022-11-10T10:55:38.716Z,13.40
2022-11-10T10:58:09.101Z,16.77
2022-11-10T11:00:43.040Z,17.63
2022-11-10T11:03:12.897Z,14.67
2022-11-10T11:05:39.076Z,20.27
2022-11-10T11:08:05.333Z,21.07
2022-11-10T11:10:34.092Z,16.70
2022-11-10T11:13:13.821Z,23.30
2022-11-10T11:15:39.994Z,13.07
2022-11-10T11:18:13.373Z,9.80
2022-11-10T11:20:44.760Z,11.90
2022-11-10T11:23:21.736Z,12.27
2022-11-10T11:25:48.618Z,14.27
2022-11-10T11:28:20.138Z,15.50
2022-11-10T11:30:51.496Z,13.47
2022-11-10T11:33:33.600Z,14.30
2022-11-10T11:36:03.627Z,10.53
2022-11-10T11:38:31.844Z,8.73
2022-11-10T11:41:07.198Z,12.77
2022-11-10T11:43:58.290Z,13.33
2022-11-10T11:46:30.849Z,16.90
2022-11-10T11:49:06.170Z,12.63
2022-11-10T11:51:38.499Z,13.67
2022-11-10T11:54:19.069Z,10.53
2022-11-10T11:56:47.349Z,12.63
2022-11-10T11:59:23.568Z,8.20
2022-11-10T12:02:01.962Z,15.53
2022-11-10T12:04:42.353Z,10.40
2022-11-10T12:07:18.568Z,10.93
2022-11-10T12:09:47.260Z,9.63
2022-11-10T12:12:37.129Z,13.87
2022-11-10T12:15:10.565Z,9.27
2022-11-10T12:17:46.530Z,11.73
2022-11-10T12:20:23.538Z,9.67
2022-11-10T12:22:57.151Z,17.80
2022-11-10T12:25:27.769Z,12.23
2022-11-10T12:28:05.149Z,13.17
2022-11-10T12:30:32.708Z,9.73
2022-11-10T12:33:02.838Z,6.80
2022-11-10T12:35:32.998Z,7.57
2022-11-10T12:38:02.247Z,7.27
2022-11-10T12:40:31.720Z,7.83
2022-11-10T12:43:00.205Z,5.87
2022-11-10T12:45:28.844Z,9.27
2022-11-10T12:47:55.520Z,10.47
2022-11-10T12:50:31.593Z,8.13
2022-11-10T12:52:59.707Z,9.00
2022-11-10T12:55:32.204Z,9.90
2022-11-10T12:58:00.563Z,5.97
2022-11-10T13:00:28.872Z,7.00
2022-11-10T13:02:56.059Z,8.20
2022-11-10T13:05:28.715Z,11.27
2022-11-10T13:08:11.152Z,4.97
2022-11-10T13:10:50.062Z,11.33
2022-11-10T13:13:16.237Z,10.53
2022-11-10T13:15:48.757Z,12.07
2022-11-10T13:18:23.869Z,7.33
2022-11-10T13:20:52.029Z,9.10
2022-11-10T13:23:26.458Z,5.33
2022-11-10T13:25:54.693Z,11.27
2022-11-10T13:28:56.258Z,8.53
2022-11-10T13:31:50.434Z,4.23
2022-11-10T13:34:28.223Z,5.23
2022-11-10T13:36:54.469Z,9.07
2022-11-10T13:39:27.737Z,8.23
2022-11-10T13:41:59.252Z,10.03
2022-11-10T13:44:26.858Z,7.77
2022-11-10T13:47:10.111Z,7.83
2022-11-10T13:49:53.148Z,9.20
2022-11-10T13:52:24.341Z,6.87
2022-11-10T13:55:02.780Z,7.53
2022-11-10T13:57:31.073Z,5.37
2022-11-10T13:59:59.547Z,8.00
2022-11-10T14:02:47.511Z,7.77
2022-11-10T14:06:00.362Z,7.00
2022-11-10T14:08:29.482Z,4.63
2022-11-10T14:10:59.053Z,4.37
2022-11-10T14:13:30.724Z,4.63
2022-11-10T14:15:57.353Z,4.30
2022-11-10T14:18:26.519Z,7.50
2022-11-10T14:20:55.885Z,10.90
2022-11-10T14:23:25.699Z,8.97
2022-11-10T14:25:55.672Z,8.60
2022-11-10T14:28:26.166Z,8.80
2022-11-10T14:30:53.479Z,7.07
2022-11-10T14:33:19.825Z,16.47
2022-11-10T14:35:48.679Z,7.70
2022-11-10T14:38:20.954Z,9.03
2022-11-10T14:40:48.172Z,8.43
2022-11-10T14:43:25.856Z,7.83
2022-11-10T14:45:52.352Z,4.50
2022-11-10T14:48:22.148Z,7.57
2022-11-10T14:50:49.428Z,5.80
2022-11-10T14:53:19.035Z,3.37
2022-11-10T14:55:46.887Z,5.00
2022-11-10T14:58:21.238Z,3.93
2022-11-10T15:00:48.848Z,5.57
2022-11-10T15:03:17.755Z,8.07
2022-11-10T15:05:44.339Z,10.80
2022-11-10T15:08:10.631Z,12.93
2022-11-10T15:10:45.607Z,7.23
2022-11-10T15:13:19.835Z,8.93
2022-11-10T15:15:45.991Z,8.00
2022-11-10T15:18:25.540Z,4.83
2022-11-10T15:21:01.748Z,4.73
2022-11-10T15:23:33.668Z,5.00
2022-11-10T15:26:00.114Z,6.60
2022-11-10T15:28:30.812Z,5.53
2022-11-10T15:30:59.024Z,3.93
2022-11-10T15:33:27.538Z,8.50
2022-11-10T15:35:55.364Z,6.03
2022-11-10T15:38:30.258Z,5.50
2022-11-10T15:41:11.380Z,6.07
2022-11-10T15:43:37.968Z,7.63
2022-11-10T15:46:17.332Z,6.93
2022-11-10T15:48:46.314Z,6.00
2022-11-10T15:51:14.716Z,12.40
2022-11-10T15:53:42.464Z,7.17
2022-11-10T15:56:13.584Z,6.30
2022-11-10T15:58:39.981Z,11.97
2022-11-10T16:01:06.221Z,6.97
2022-11-10T16:03:32.481Z,12.90
2022-11-10T16:05:59.340Z,7.70
2022-11-10T16:08:26.333Z,4.80
2022-11-10T16:10:53.835Z,9.33
2022-11-10T16:13:24.067Z,6.83
2022-11-10T16:15:50.711Z,6.00
2022-11-10T16:18:19.203Z,6.67
2022-11-10T16:20:45.578Z,5.73
2022-11-10T16:23:12.375Z,4.60
2022-11-10T16:25:38.753Z,4.17
2022-11-10T16:28:05.088Z,8.27
2022-11-10T16:30:31.895Z,14.47
2022-11-10T16:32:58.210Z,20.83
2022-11-10T16:35:24.397Z,15.87
2022-11-10T16:37:50.532Z,8.60
2022-11-10T16:40:19.051Z,7.77
2022-11-10T16:42:45.447Z,6.40
2022-11-10T16:45:15.379Z,6.67
2022-11-10T16:47:42.227Z,5.77
2022-11-10T16:50:25.267Z,10.53
2022-11-10T16:52:51.533Z,8.03
2022-11-10T16:55:18.427Z,8.50
2022-11-10T16:57:44.573Z,6.07
2022-11-10T17:00:12.285Z,5.20
2022-11-10T17:02:39.563Z,9.63
2022-11-10T17:05:06.246Z,9.07
2022-11-10T17:07:32.956Z,9.60
2022-11-10T17:09:59.976Z,8.47
2022-11-10T17:12:26.816Z,11.07
2022-11-10T17:14:52.957Z,9.53
2022-11-10T17:17:19.464Z,11.50
2022-11-10T17:19:46.772Z,7.37
2022-11-10T17:22:16.233Z,6.23
2022-11-10T17:24:42.502Z,6.23
2022-11-10T17:27:09.837Z,4.10
2022-11-10T17:29:36.668Z,7.83
2022-11-10T17:32:02.896Z,8.23
2022-11-10T17:34:29.065Z,6.37
2022-11-10T17:36:55.236Z,4.63
2022-11-10T17:39:22.215Z,4.17
2022-11-10T17:41:48.400Z,7.50
2022-11-10T17:44:15.885Z,5.80
2022-11-10T17:46:42.958Z,7.10
2022-11-10T17:49:09.340Z,7.93
2022-11-10T17:51:36.012Z,6.60
2022-11-10T17:54:03.657Z,5.17
2022-11-10T17:56:29.975Z,6.37
2022-11-10T17:58:56.207Z,6.93
2022-11-10T18:01:22.661Z,9.20
2022-11-10T18:03:50.131Z,13.37
2022-11-10T18:06:18.158Z,7.10
2022-11-10T18:08:44.687Z,12.00
2022-11-10T18:11:12.463Z,5.87
2022-11-10T18:13:39.787Z,6.43
2022-11-10T18:16:08.969Z,5.77
2022-11-10T18:18:35.617Z,6.07
2022-11-10T18:21:03.091Z,9.10
2022-11-10T18:23:29.445Z,10.00
2022-11-10T18:25:55.712Z,5.37
2022-11-10T18:28:21.928Z,8.60
2022-11-10T18:30:48.111Z,8.60
2022-11-10T18:33:14.442Z,7.97
2022-11-10T18:35:40.796Z,7.33
2022-11-10T18:38:09.245Z,5.10
2022-11-10T18:40:35.625Z,5.20
2022-11-10T18:43:07.260Z,12.60
2022-11-10T18:45:35.219Z,6.50
2022-11-10T18:48:02.654Z,5.50
2022-11-10T18:50:29.165Z,7.80
2022-11-10T18:52:55.792Z,5.73
2022-11-10T18:55:22.671Z,6.63
2022-11-10T18:57:48.863Z,9.53
2022-11-10T19:00:15.888Z,8.37
2022-11-10T19:02:42.534Z,5.53
2022-11-10T19:05:08.989Z,9.07
2022-11-10T19:07:35.442Z,8.03
2022-11-10T19:10:01.806Z,7.30
2022-11-10T19:12:28.993Z,11.00
2022-11-10T19:14:55.649Z,11.87
2022-11-10T19:17:21.900Z,7.87
2022-11-10T19:19:52.009Z,7.27
2022-11-10T19:22:21.813Z,9.83
2022-11-10T19:25:07.209Z,5.70
2022-11-10T19:27:35.668Z,7.30
2022-11-10T19:30:02.163Z,5.90
2022-11-10T19:32:29.282Z,7.03
2022-11-10T19:34:55.771Z,7.70
2022-11-10T19:37:22.870Z,8.40
2022-11-10T19:39:49.258Z,5.90
2022-11-10T19:42:15.579Z,7.93
2022-11-10T19:44:42.440Z,8.20
2022-11-10T19:47:08.740Z,7.63
2022-11-10T19:49:37.504Z,5.47
2022-11-10T19:52:03.872Z,9.93
2022-11-10T19:54:30.129Z,10.60
2022-11-10T19:56:56.309Z,10.07
2022-11-10T19:59:22.547Z,5.63
2022-11-10T20:01:49.561Z,5.90
2022-11-10T20:04:15.839Z,12.53
2022-11-10T20:06:42.045Z,5.73
2022-11-10T20:09:08.454Z,7.50
2022-11-10T20:11:34.693Z,8.70
2022-11-10T20:14:01.143Z,8.67
2022-11-10T20:16:27.589Z,6.63
2022-11-10T20:18:54.622Z,11.13
2022-11-10T20:21:22.816Z,7.87
2022-11-10T20:23:52.624Z,7.90
2022-11-10T20:26:18.980Z,9.33
2022-11-10T20:28:45.309Z,12.63
2022-11-10T20:31:15.490Z,12.43
2022-11-10T20:33:42.233Z,8.73
2022-11-10T20:36:15.965Z,8.13
2022-11-10T20:38:45.585Z,6.93
2022-11-10T20:41:14.462Z,9.77
2022-11-10T20:43:41.064Z,11.67
2022-11-10T20:46:16.125Z,7.83
2022-11-10T20:48:49.038Z,10.00
2022-11-10T20:51:18.432Z,8.33
2022-11-10T20:53:45.063Z,6.93
2022-11-10T20:56:12.074Z,11.87
2022-11-10T20:58:38.403Z,12.07
2022-11-10T21:01:06.194Z,8.13
2022-11-10T21:03:32.976Z,7.90
2022-11-10T21:06:00.284Z,8.43
2022-11-10T21:08:27.532Z,13.63
2022-11-10T21:10:55.405Z,8.90
2022-11-10T21:13:22.966Z,13.30
2022-11-10T21:15:50.696Z,10.80
2022-11-10T21:18:17.348Z,7.87
2022-11-10T21:20:43.816Z,10.53
2022-11-10T21:23:10.275Z,14.57
2022-11-10T21:25:37.395Z,10.10
2022-11-10T21:28:04.346Z,13.73
2022-11-10T21:30:30.646Z,15.20
2022-11-10T21:32:56.918Z,12.43
2022-11-10T21:35:23.359Z,9.70
2022-11-10T21:37:49.711Z,11.67
2022-11-10T21:40:16.242Z,7.50
2022-11-10T21:42:43.031Z,16.43
2022-11-10T21:45:10.182Z,11.07
2022-11-10T21:47:36.634Z,12.50
2022-11-10T21:50:03.753Z,15.67
2022-11-10T21:52:31.911Z,10.23
2022-11-10T21:54:58.245Z,9.10
2022-11-10T21:57:24.672Z,17.47
2022-11-10T21:59:51.857Z,10.37
2022-11-10T22:02:18.141Z,11.87
2022-11-10T22:04:44.426Z,16.93
2022-11-10T22:07:23.169Z,11.70
2022-11-10T22:10:08.376Z,8.20
2022-11-10T22:12:53.134Z,15.53
2022-11-10T22:15:38.509Z,9.07
2022-11-10T22:18:29.496Z,12.37
2022-11-10T22:20:55.854Z,12.47
2022-11-10T22:23:42.281Z,12.03
2022-11-10T22:26:08.489Z,11.20
2022-11-10T22:28:34.865Z,13.87
2022-11-10T22:31:02.926Z,14.00
2022-11-10T22:33:31.621Z,15.67
2022-11-10T22:35:59.517Z,12.20
2022-11-10T22:38:25.729Z,11.60
2022-11-10T22:41:10.159Z,14.47
2022-11-10T22:43:54.817Z,13.90
2022-11-10T22:46:21.818Z,10.50
2022-11-10T22:48:48.065Z,12.83
2022-11-10T22:51:14.373Z,14.13
2022-11-10T22:53:40.756Z,12.70
2022-11-10T22:56:07.324Z,12.33
2022-11-10T22:58:33.758Z,9.83
2022-11-10T23:01:04.581Z,11.77
2022-11-10T23:03:31.624Z,13.10
2022-11-10T23:05:57.858Z,9.60
2022-11-10T23:08:24.126Z,14.50
2022-11-10T23:10:57.075Z,6.93
2022-11-10T23:13:23.770Z,10.83
2022-11-10T23:15:52.368Z,14.13
2022-11-10T23:18:18.824Z,12.60
2022-11-10T23:20:45.704Z,12.60
2022-11-10T23:23:12.152Z,15.23
2022-11-10T23:25:38.400Z,13.17
2022-11-10T23:28:04.978Z,15.73
2022-11-10T23:30:32.576Z,14.90
2022-11-10T23:32:58.844Z,13.03
2022-11-10T23:35:25.048Z,15.90
2022-11-10T23:37:51.860Z,11.07
2022-11-10T23:40:18.167Z,19.47
2022-11-10T23:42:44.918Z,14.77
2022-11-10T23:45:11.129Z,13.93
2022-11-10T23:47:37.414Z,13.47
2022-11-10T23:50:04.306Z,10.23
2022-11-10T23:52:30.635Z,17.93
2022-11-10T23:54:57.644Z,11.57
2022-11-10T23:57:23.914Z,15.73
2022-11-10T23:59:50.277Z,16.97
